Time;durP1;ratioP1;P1;durP2;ratioP2;P2;SDS_P1;SDS_P2;PMS_P1;PMS_P2;Temp;Humidity;BMP_temperature;BMP_pressure;BME280_temperature;BME280_humidity;BME280_pressure;Samples;Min_cycle;Max_cycle;Signal;HPM_P1;HPM_P2
2023/12/11 00:01:16;;;;;;;20.63;4.40;;;10.20;99.90;;;;;;4947888;28;20054;-84
2023/12/11 00:03:43;;;;;;;23.48;4.43;;;10.10;99.90;;;;;;4972158;28;20149;-83
2023/12/11 00:06:14;;;;;;;20.40;4.72;;;10.00;99.90;;;;;;4924876;29;20052;-83
2023/12/11 00:08:42;;;;;;;18.80;3.38;;;10.00;99.90;;;;;;4924204;29;20055;-83
2023/12/11 00:11:09;;;;;;;21.50;3.10;;;10.00;99.90;;;;;;4940004;29;20055;-83
2023/12/11 00:13:36;;;;;;;21.90;3.25;;;9.90;99.90;;;;;;4955810;29;20094;-82
2023/12/11 00:16:03;;;;;;;23.50;3.72;;;10.00;99.90;;;;;;4956244;28;20071;-83
2023/12/11 00:18:31;;;;;;;17.10;2.80;;;9.90;99.90;;;;;;4939568;29;20098;-82
2023/12/11 00:21:00;;;;;;;25.80;4.30;;;9.90;99.90;;;;;;4921922;29;20464;-83
2023/12/11 00:23:27;;;;;;;18.90;3.58;;;10.00;99.90;;;;;;4939865;29;20114;-83
2023/12/11 00:25:54;;;;;;;11.20;2.70;;;9.90;99.90;;;;;;4939479;29;20047;-82
2023/12/11 00:28:21;;;;;;;26.45;4.38;;;10.00;99.90;;;;;;4955619;28;20050;-82
2023/12/11 00:30:48;;;;;;;17.40;2.92;;;9.90;99.90;;;;;;4939867;29;20055;-82
2023/12/11 00:33:18;;;;;;;20.90;3.90;;;9.90;99.90;;;;;;4929195;29;20464;-82
2023/12/11 00:35:47;;;;;;;20.70;3.70;;;9.90;99.90;;;;;;4939365;29;20047;-82
2023/12/11 00:38:14;;;;;;;25.27;5.20;;;9.90;99.90;;;;;;4928006;29;20579;-82
2023/12/11 00:40:42;;;;;;;21.13;4.32;;;9.90;99.90;;;;;;4939477;29;20126;-82
2023/12/11 00:43:09;;;;;;;24.35;4.32;;;10.00;99.90;;;;;;4939158;29;20043;-82
2023/12/11 00:45:36;;;;;;;25.20;3.45;;;10.00;99.90;;;;;;4939328;29;20487;-82
2023/12/11 00:48:03;;;;;;;19.17;3.80;;;10.00;99.90;;;;;;4938972;29;20048;-82
2023/12/11 00:50:30;;;;;;;20.38;3.38;;;10.00;99.90;;;;;;4939480;29;20067;-83
2023/12/11 00:52:57;;;;;;;22.33;3.28;;;9.90;99.90;;;;;;4939296;29;20123;-82
2023/12/11 00:55:24;;;;;;;20.48;3.85;;;9.80;99.90;;;;;;4938872;29;20048;-83
2023/12/11 00:57:51;;;;;;;16.73;2.67;;;9.80;99.90;;;;;;4923142;29;20504;-82
2023/12/11 01:00:19;;;;;;;24.90;4.20;;;9.70;99.90;;;;;;4939144;29;20047;-87
2023/12/11 01:02:47;;;;;;;20.70;4.10;;;9.80;99.90;;;;;;4939631;29;20058;-87
2023/12/11 01:05:14;;;;;;;24.05;3.47;;;9.80;99.90;;;;;;4924002;29;20085;-87
2023/12/11 01:07:44;;;;;;;32.03;5.10;;;9.80;99.90;;;;;;4938825;29;20055;-87
2023/12/11 01:10:11;;;;;;;22.70;3.35;;;9.70;99.90;;;;;;4939180;29;20058;-87
2023/12/11 01:12:39;;;;;;;24.38;4.13;;;9.80;99.90;;;;;;4939412;29;20066;-87
2023/12/11 01:15:06;;;;;;;21.55;4.05;;;9.80;99.90;;;;;;4938944;29;20102;-87
2023/12/11 01:17:33;;;;;;;23.23;3.15;;;9.80;99.90;;;;;;4939093;29;20043;-87
2023/12/11 01:20:08;;;;;;;18.05;4.63;;;9.80;99.90;;;;;;4938715;29;20059;-87
2023/12/11 01:22:35;;;;;;;24.65;3.92;;;9.90;99.90;;;;;;4956080;29;20078;-86
2023/12/11 01:25:03;;;;;;;19.27;2.75;;;9.90;99.90;;;;;;4939293;29;20058;-87
2023/12/11 01:27:30;;;;;;;14.45;3.15;;;9.90;99.90;;;;;;4938972;29;20138;-86
2023/12/11 01:29:58;;;;;;;15.60;2.67;;;9.90;99.90;;;;;;4929076;29;20048;-86
2023/12/11 01:32:27;;;;;;;15.13;3.25;;;9.90;99.90;;;;;;4939029;29;20102;-87
2023/12/11 01:34:54;;;;;;;15.18;2.90;;;10.00;99.90;;;;;;4938376;29;20039;-86
2023/12/11 01:37:21;;;;;;;17.40;2.80;;;10.00;99.90;;;;;;4923336;29;20044;-87
2023/12/11 01:39:48;;;;;;;18.65;3.28;;;10.00;99.90;;;;;;4938741;29;20102;-86
2023/12/11 01:42:16;;;;;;;16.98;2.53;;;9.90;99.90;;;;;;4938543;29;20040;-87
2023/12/11 01:44:44;;;;;;;14.52;2.10;;;9.90;99.90;;;;;;4938629;29;20471;-86
2023/12/11 01:47:13;;;;;;;21.67;2.67;;;9.80;99.90;;;;;;4938639;29;20129;-86
2023/12/11 01:49:40;;;;;;;11.88;2.40;;;9.80;99.90;;;;;;4954193;29;20047;-86
2023/12/11 01:52:08;;;;;;;15.98;2.15;;;9.80;99.90;;;;;;4938670;29;20546;-85
2023/12/11 01:54:37;;;;;;;13.18;2.35;;;9.80;99.90;;;;;;4938128;29;20047;-86
2023/12/11 01:57:05;;;;;;;15.23;2.58;;;9.80;99.90;;;;;;4938310;29;20046;-86
2023/12/11 01:59:33;;;;;;;17.13;3.20;;;9.80;99.90;;;;;;4938540;29;20043;-86
2023/12/11 02:02:03;;;;;;;14.18;2.97;;;9.80;99.90;;;;;;4938173;29;20051;-86
2023/12/11 02:04:31;;;;;;;15.38;3.08;;;9.80;99.90;;;;;;4938138;29;20085;-86
2023/12/11 02:06:58;;;;;;;14.85;3.10;;;9.90;99.90;;;;;;4938140;29;20062;-86
2023/12/11 02:09:28;;;;;;;15.32;3.38;;;9.90;99.90;;;;;;4938223;29;20484;-86
2023/12/11 02:11:55;;;;;;;17.52;2.63;;;9.90;99.90;;;;;;4938611;29;20066;-86
2023/12/11 02:14:23;;;;;;;12.85;2.80;;;9.90;99.90;;;;;;4937956;29;20043;-86
2023/12/11 02:16:50;;;;;;;21.23;3.05;;;9.90;99.90;;;;;;4937944;29;20039;-86
2023/12/11 02:19:19;;;;;;;22.08;3.10;;;9.90;99.90;;;;;;4938833;28;20047;-87
2023/12/11 02:21:47;;;;;;;24.17;3.65;;;9.90;99.90;;;;;;4942528;29;20521;-86
2023/12/11 02:24:28;;;;;;;21.15;3.67;;;9.90;99.90;;;;;;4969820;28;20507;-86
2023/12/11 02:26:55;;;;;;;22.30;3.35;;;9.90;99.90;;;;;;4937958;29;20051;-86
2023/12/11 02:29:23;;;;;;;21.58;2.83;;;9.80;99.90;;;;;;4937838;29;20058;-86
2023/12/11 02:31:50;;;;;;;22.10;3.97;;;9.80;99.90;;;;;;4938184;29;20044;-86
2023/12/11 02:34:17;;;;;;;18.33;2.08;;;9.80;99.90;;;;;;4953854;29;20043;-86
2023/12/11 02:36:44;;;;;;;16.38;2.58;;;9.80;99.90;;;;;;4938200;29;20051;-86
2023/12/11 02:39:14;;;;;;;14.60;3.15;;;9.80;99.90;;;;;;4937610;29;20043;-86
2023/12/11 02:41:42;;;;;;;14.68;2.28;;;9.80;99.90;;;;;;4938205;28;20047;-86
2023/12/11 02:44:09;;;;;;;19.45;3.40;;;9.80;99.90;;;;;;4937990;29;20087;-86
2023/12/11 02:46:39;;;;;;;22.92;3.25;;;9.80;99.90;;;;;;4938013;29;20051;-85
2023/12/11 02:49:06;;;;;;;19.02;2.80;;;9.80;99.90;;;;;;4969450;28;20510;-88
2023/12/11 02:51:33;;;;;;;15.75;3.45;;;9.80;99.90;;;;;;4938276;29;20047;-86
2023/12/11 02:54:01;;;;;;;24.77;4.20;;;9.80;99.90;;;;;;4954812;29;20047;-93
2023/12/11 02:56:28;;;;;;;21.15;2.85;;;9.70;99.90;;;;;;4955362;29;20040;-93
2023/12/11 02:58:55;;;;;;;18.55;3.17;;;9.70;99.90;;;;;;4940215;29;20043;-93
2023/12/11 03:01:22;;;;;;;21.50;3.38;;;9.70;99.90;;;;;;4949600;28;20051;-89
2023/12/11 03:03:49;;;;;;;25.08;4.90;;;9.60;99.90;;;;;;4980409;28;20047;-94
2023/12/11 03:06:19;;;;;;;24.85;3.40;;;9.60;99.90;;;;;;4946940;29;20055;-89
2023/12/11 03:08:55;;;;;;;27.40;4.88;;;9.60;99.90;;;;;;4941897;29;20115;-88
2023/12/11 03:11:32;;;;;;;18.67;3.03;;;9.60;99.90;;;;;;4971570;28;20047;-88
2023/12/11 03:17:31;;;;;;;18.10;2.75;;;9.50;99.90;;;;;;4957148;28;20050;-93
2023/12/11 03:20:32;;;;;;;14.57;3.05;;;9.50;99.90;;;;;;4901428;28;20059;-88
2023/12/11 03:23:06;;;;;;;12.30;1.92;;;9.50;99.90;;;;;;4955271;28;20051;-88
2023/12/11 03:25:56;;;;;;;11.68;2.83;;;9.50;99.90;;;;;;4939243;29;20075;-89
2023/12/11 03:28:30;;;;;;;11.68;2.38;;;9.50;99.90;;;;;;4937998;28;20066;-86
2023/12/11 03:30:57;;;;;;;12.82;2.55;;;9.50;99.90;;;;;;4956677;29;20066;-86
2023/12/11 03:33:25;;;;;;;11.35;1.83;;;9.40;99.90;;;;;;4941145;29;20047;-86
2023/12/11 03:35:52;;;;;;;15.85;2.22;;;9.40;99.90;;;;;;4940934;29;20118;-86
2023/12/11 03:38:19;;;;;;;17.98;3.72;;;9.40;99.90;;;;;;4945595;28;20122;-86
2023/12/11 03:40:46;;;;;;;20.67;3.90;;;9.40;99.90;;;;;;4941679;29;20105;-87
2023/12/11 03:43:14;;;;;;;23.52;3.67;;;9.30;99.90;;;;;;4972858;28;20503;-86
2023/12/11 03:45:41;;;;;;;22.02;3.10;;;9.30;99.90;;;;;;4941702;29;20047;-87
2023/12/11 03:48:08;;;;;;;13.93;2.80;;;9.30;99.90;;;;;;4941111;29;20051;-87
2023/12/11 03:50:36;;;;;;;22.00;3.92;;;9.30;99.90;;;;;;4957386;29;20673;-84
2023/12/11 03:53:03;;;;;;;23.00;3.95;;;9.30;99.90;;;;;;4924984;29;20126;-84
2023/12/11 03:55:30;;;;;;;18.40;3.33;;;9.30;99.90;;;;;;4956773;29;20046;-83
2023/12/11 03:57:57;;;;;;;20.27;3.13;;;9.30;99.90;;;;;;4956421;29;20047;-84
2023/12/11 04:00:24;;;;;;;17.88;3.03;;;9.30;99.90;;;;;;4956726;29;20061;-84
2023/12/11 04:02:52;;;;;;;16.55;2.70;;;9.40;99.90;;;;;;4950169;28;20518;-84
2023/12/11 04:05:19;;;;;;;15.63;2.20;;;9.40;99.90;;;;;;4957175;28;20047;-84
2023/12/11 04:07:46;;;;;;;13.63;2.80;;;9.40;99.90;;;;;;4941207;29;20051;-85
2023/12/11 04:10:13;;;;;;;14.52;2.67;;;9.40;99.90;;;;;;4956335;29;20035;-84
2023/12/11 04:12:43;;;;;;;20.67;2.80;;;9.40;99.90;;;;;;4940785;29;20047;-83
2023/12/11 04:15:10;;;;;;;16.05;2.78;;;9.40;99.90;;;;;;4940992;29;20047;-85
2023/12/11 04:17:38;;;;;;;14.48;2.05;;;9.40;99.90;;;;;;4956989;29;20071;-84
2023/12/11 04:20:06;;;;;;;14.55;2.10;;;9.40;99.90;;;;;;4940889;29;20062;-85
2023/12/11 04:22:33;;;;;;;16.38;2.72;;;9.40;99.90;;;;;;4956496;29;20103;-84
2023/12/11 04:25:04;;;;;;;19.05;3.65;;;9.40;99.90;;;;;;4925805;29;20075;-89
2023/12/11 04:32:23;;;;;;;13.90;3.13;;;9.40;99.90;;;;;;4899067;29;20558;-92
2023/12/11 04:36:22;;;;;;;18.17;2.80;;;9.40;99.90;;;;;;4876708;29;20060;-95
2023/12/11 05:38:08;;;;;;;28.45;3.55;;;9.50;99.90;;;;;;6221797;22;1456508;-86
2023/12/11 05:40:35;;;;;;;17.13;3.25;;;9.50;99.90;;;;;;6283780;22;20021;-86
2023/12/11 05:43:03;;;;;;;17.95;3.35;;;9.50;99.90;;;;;;6284455;22;20047;-87
2023/12/11 05:45:30;;;;;;;23.92;3.78;;;9.50;99.90;;;;;;6258922;22;20065;-88
2023/12/11 05:48:00;;;;;;;19.08;2.92;;;9.50;99.90;;;;;;6259121;22;20480;-87
2023/12/11 05:50:27;;;;;;;23.70;3.08;;;9.50;99.90;;;;;;6284227;22;20020;-88
2023/12/11 05:52:57;;;;;;;17.70;2.65;;;9.50;99.90;;;;;;6259871;22;20016;-88
2023/12/11 05:55:32;;;;;;;19.38;2.72;;;9.50;99.90;;;;;;6284704;22;20443;-89
2023/12/11 05:58:00;;;;;;;26.83;3.75;;;9.50;99.90;;;;;;6258184;22;20102;-85
2023/12/11 06:00:31;;;;;;;14.90;2.50;;;9.50;99.90;;;;;;6283035;22;20027;-85
2023/12/11 06:02:58;;;;;;;19.90;3.17;;;9.50;99.90;;;;;;6283098;22;20015;-85
2023/12/11 06:05:25;;;;;;;18.20;2.63;;;9.50;99.90;;;;;;6283075;22;20023;-85
2023/12/11 06:07:55;;;;;;;22.10;3.92;;;9.50;99.90;;;;;;6264345;22;20030;-85
2023/12/11 06:10:23;;;;;;;19.10;2.95;;;9.50;99.90;;;;;;6256826;22;20469;-84
2023/12/11 06:12:50;;;;;;;25.60;5.25;;;9.50;99.90;;;;;;6281511;22;20042;-85
2023/12/11 06:15:21;;;;;;;20.63;4.05;;;9.50;99.90;;;;;;6281895;22;20042;-84
2023/12/11 06:17:55;;;;;;;20.10;3.55;;;9.50;99.90;;;;;;6283038;22;20094;-85
2023/12/11 06:20:23;;;;;;;21.42;2.83;;;9.50;99.90;;;;;;6307503;22;20030;-86
2023/12/11 06:22:50;;;;;;;21.30;2.88;;;9.50;99.90;;;;;;6256588;22;20015;-85
2023/12/11 06:25:17;;;;;;;18.38;2.67;;;9.50;99.90;;;;;;6282256;22;20491;-84
2023/12/11 06:27:45;;;;;;;17.85;3.35;;;9.50;99.90;;;;;;6281336;22;20073;-84
2023/12/11 06:30:19;;;;;;;18.13;3.47;;;9.50;99.90;;;;;;6283172;22;20020;-85
2023/12/11 06:33:23;;;;;;;;;;;;;;;;;;;;;
2023/12/11 06:36:25;;;;;;;20.90;2.17;;;9.40;99.90;;;;;;6223819;22;20024;-91
2023/12/11 06:52:33;;;;;;;21.95;4.05;;;9.30;99.90;;;;;;6314009;22;20010;-93
2023/12/11 06:55:00;;;;;;;17.75;2.80;;;9.30;99.90;;;;;;6283199;22;20345;-93
2023/12/11 06:57:30;;;;;;;23.38;2.25;;;9.30;99.90;;;;;;6259567;22;20023;-92
2023/12/11 07:00:09;;;;;;;19.45;3.92;;;9.30;99.90;;;;;;6285774;22;20043;-93
2023/12/11 07:02:49;;;;;;;21.13;3.55;;;9.30;99.90;;;;;;6263401;22;20023;-92
2023/12/11 07:05:17;;;;;;;18.48;2.53;;;9.30;99.90;;;;;;6284292;22;20047;-93
2023/12/11 07:07:49;;;;;;;18.23;2.40;;;9.30;99.90;;;;;;6259271;22;20019;-93
2023/12/11 07:10:16;;;;;;;15.38;2.63;;;9.30;99.90;;;;;;6283286;22;20023;-93
2023/12/11 07:12:47;;;;;;;24.52;4.38;;;9.30;99.90;;;;;;6283205;22;20088;-92
2023/12/11 07:15:20;;;;;;;20.40;3.80;;;9.30;99.90;;;;;;6283463;22;20015;-90
2023/12/11 07:18:02;;;;;;;18.02;2.95;;;9.30;99.90;;;;;;6259702;22;20019;-89
2023/12/11 07:25:28;;;;;;;15.63;2.17;;;9.30;99.90;;;;;;6310183;22;20064;-93
2023/12/11 07:28:00;;;;;;;19.73;2.53;;;9.30;99.90;;;;;;6307977;22;20027;-93
2023/12/11 07:30:48;;;;;;;18.55;2.88;;;9.30;99.90;;;;;;6283971;22;20039;-93
2023/12/11 07:33:22;;;;;;;16.90;3.17;;;9.30;99.90;;;;;;6283056;22;20019;-93
2023/12/11 07:36:15;;;;;;;25.50;3.83;;;9.30;99.90;;;;;;6278912;22;20098;-94
2023/12/11 07:39:24;;;;;;;;;;;;;;;;;;;;;
2023/12/11 07:42:05;;;;;;;22.83;3.17;;;9.20;99.90;;;;;;6266644;22;20084;-93
2023/12/11 07:44:40;;;;;;;21.23;3.53;;;9.20;99.90;;;;;;6281200;22;20046;-93
2023/12/11 08:01:53;;;;;;;16.30;2.20;;;9.10;99.90;;;;;;6156180;23;20096;-95
2023/12/11 08:06:30;;;;;;;21.70;2.33;;;9.10;99.90;;;;;;6126846;23;20065;-95
2023/12/11 08:13:32;;;;;;;10.68;1.80;;;9.10;99.90;;;;;;6121868;22;20023;-94
2023/12/11 08:16:10;;;;;;;15.00;1.65;;;9.10;99.90;;;;;;6255357;22;20015;-94
2023/12/11 08:18:41;;;;;;;12.13;2.03;;;9.10;99.90;;;;;;6282060;22;20365;-92
2023/12/11 08:21:18;;;;;;;9.95;1.60;;;9.10;99.90;;;;;;6256084;22;20020;-91
2023/12/11 08:23:49;;;;;;;11.90;1.95;;;9.10;99.90;;;;;;6232650;22;20134;-92
2023/12/11 08:26:19;;;;;;;13.52;2.25;;;9.10;99.90;;;;;;6281957;22;20043;-91
2023/12/11 08:28:50;;;;;;;8.75;2.15;;;9.10;99.90;;;;;;6261575;22;20019;-92
2023/12/11 08:35:56;;;;;;;6.22;1.25;;;9.10;99.90;;;;;;6310393;22;20487;-93
2023/12/11 08:38:41;;;;;;;9.77;1.73;;;9.10;99.90;;;;;;6284532;22;20020;-94
2023/12/11 08:41:16;;;;;;;12.05;2.53;;;9.20;99.90;;;;;;6256694;22;20046;-95
2023/12/11 08:43:53;;;;;;;12.23;2.08;;;9.20;99.90;;;;;;6282024;22;20098;-94
2023/12/11 08:49:59;;;;;;;12.02;2.13;;;9.20;99.90;;;;;;6281262;22;20453;-92
2023/12/11 08:52:50;;;;;;;9.63;2.00;;;9.20;99.90;;;;;;6252946;22;20030;-86
2023/12/11 08:59:08;;;;;;;12.48;2.55;;;9.20;99.90;;;;;;6305901;22;20390;-86
2023/12/11 09:01:38;;;;;;;13.32;2.08;;;9.20;99.90;;;;;;6306515;22;20023;-90
2023/12/11 09:08:39;;;;;;;10.57;2.13;;;9.20;99.90;;;;;;6184352;23;20088;-91
2023/12/11 09:11:08;;;;;;;11.68;1.42;;;9.20;99.90;;;;;;6201283;22;20532;-85
2023/12/11 09:13:41;;;;;;;11.38;2.17;;;9.20;99.90;;;;;;6280616;22;20490;-85
2023/12/11 09:16:08;;;;;;;10.13;1.65;;;9.30;99.90;;;;;;6255068;22;20349;-86
2023/12/11 09:18:37;;;;;;;10.60;1.77;;;9.40;99.90;;;;;;6306281;22;20065;-86
2023/12/11 09:21:10;;;;;;;6.38;1.33;;;9.40;99.90;;;;;;6280442;22;20019;-87
2023/12/11 09:23:37;;;;;;;4.30;1.00;;;9.50;99.90;;;;;;6254999;22;20068;-86
2023/12/11 09:26:04;;;;;;;7.85;1.92;;;9.50;99.90;;;;;;6280638;22;20026;-87
2023/12/11 09:28:39;;;;;;;7.18;1.83;;;9.60;99.90;;;;;;6256102;22;20030;-90
2023/12/11 09:31:22;;;;;;;7.82;1.20;;;9.60;99.90;;;;;;6281209;22;20019;-84
2023/12/11 09:33:50;;;;;;;8.93;1.38;;;9.60;99.90;;;;;;6306013;22;20459;-86
2023/12/11 09:36:20;;;;;;;10.57;1.60;;;9.60;99.90;;;;;;6279982;22;20967;-85
2023/12/11 09:38:47;;;;;;;7.72;1.30;;;9.70;99.90;;;;;;6280742;22;20020;-85
2023/12/11 09:41:17;;;;;;;11.48;1.80;;;9.70;99.90;;;;;;6280606;22;20015;-86
2023/12/11 09:43:47;;;;;;;7.03;1.60;;;9.70;99.90;;;;;;6258293;22;20098;-88
2023/12/11 09:46:18;;;;;;;10.60;1.60;;;9.80;99.90;;;;;;6282229;22;20069;-87
2023/12/11 09:48:48;;;;;;;8.02;1.33;;;9.80;99.90;;;;;;6308209;22;20065;-85
2023/12/11 09:51:18;;;;;;;8.82;1.17;;;9.80;99.90;;;;;;6282276;22;20023;-86
2023/12/11 09:53:48;;;;;;;14.13;1.50;;;9.80;99.90;;;;;;6282839;22;20015;-86
2023/12/11 09:56:19;;;;;;;5.82;1.30;;;9.80;99.90;;;;;;6232953;22;20515;-85
2023/12/11 09:58:46;;;;;;;9.48;1.45;;;9.90;99.90;;;;;;6282545;22;20072;-85
2023/12/11 10:01:14;;;;;;;8.95;1.38;;;9.90;99.90;;;;;;6232518;22;20015;-87
2023/12/11 10:03:42;;;;;;;5.93;1.50;;;10.00;99.90;;;;;;6282778;22;20020;-90
2023/12/11 10:06:09;;;;;;;7.43;0.88;;;10.00;99.90;;;;;;6283052;22;20019;-88
2023/12/11 10:08:45;;;;;;;10.55;1.27;;;10.00;99.90;;;;;;6282422;22;20019;-87
2023/12/11 10:11:21;;;;;;;12.07;1.60;;;10.10;99.90;;;;;;6282886;22;20027;-89
2023/12/11 10:13:52;;;;;;;5.28;1.02;;;10.10;99.90;;;;;;6283050;22;20020;-88
2023/12/11 10:16:31;;;;;;;10.60;2.58;;;10.00;99.90;;;;;;6282676;22;20015;-86
2023/12/11 10:19:00;;;;;;;9.82;1.00;;;10.00;99.90;;;;;;6307997;22;20015;-88
2023/12/11 10:21:41;;;;;;;7.78;1.25;;;10.00;99.90;;;;;;6282427;22;20042;-88
2023/12/11 10:24:14;;;;;;;7.28;1.48;;;10.00;99.90;;;;;;6308524;22;20019;-86
2023/12/11 10:26:46;;;;;;;11.15;1.50;;;9.90;99.90;;;;;;6262512;22;20076;-86
2023/12/11 10:29:18;;;;;;;;;;;9.90;99.90;;;;;;6308218;22;20456;-87
2023/12/11 10:31:59;;;;;;;7.32;1.67;;;9.80;99.90;;;;;;6282030;22;19954;-88
2023/12/11 10:34:50;;;;;;;12.13;2.17;;;9.70;99.90;;;;;;6282139;22;20062;-86
2023/12/11 10:37:18;;;;;;;11.38;1.65;;;9.60;99.90;;;;;;6257293;22;20129;-86
2023/12/11 10:39:55;;;;;;;8.38;2.15;;;9.50;99.90;;;;;;6281811;22;20011;-86
2023/12/11 10:42:23;;;;;;;9.75;2.30;;;9.50;99.90;;;;;;6281935;22;20102;-87
2023/12/11 10:44:55;;;;;;;12.80;1.65;;;9.40;99.90;;;;;;6282710;22;20457;-87
2023/12/11 10:47:23;;;;;;;6.22;1.48;;;9.40;99.90;;;;;;6256275;22;20080;-87
2023/12/11 10:49:50;;;;;;;9.45;2.13;;;9.40;99.90;;;;;;6281623;22;20046;-85
2023/12/11 10:52:20;;;;;;;8.38;1.58;;;9.40;99.90;;;;;;6282342;22;20023;-86
2023/12/11 10:54:49;;;;;;;12.70;2.03;;;9.40;99.90;;;;;;6282131;22;20364;-85
2023/12/11 10:57:16;;;;;;;11.43;2.35;;;9.40;99.90;;;;;;6255732;22;20020;-86
2023/12/11 10:59:51;;;;;;;15.77;2.13;;;9.40;99.90;;;;;;6281447;22;20029;-87
2023/12/11 11:02:36;;;;;;;9.07;2.40;;;9.50;99.90;;;;;;6281517;22;20014;-92
2023/12/11 11:05:56;;;;;;;11.57;2.58;;;9.50;99.90;;;;;;6276375;22;20016;-93
2023/12/11 11:09:07;;;;;;;10.57;2.20;;;9.60;99.90;;;;;;6191158;23;20021;-92
2023/12/11 11:20:21;;;;;;;10.40;2.33;;;9.70;99.90;;;;;;6295377;22;20401;-92
2023/12/11 11:23:41;;;;;;;7.35;1.75;;;9.70;99.90;;;;;;6259164;22;20019;-90
2023/12/11 11:26:36;;;;;;;9.40;2.00;;;9.60;99.90;;;;;;6287495;22;20090;-85
2023/12/11 11:29:04;;;;;;;9.70;1.70;;;9.40;99.90;;;;;;6281103;22;20030;-84
2023/12/11 11:31:50;;;;;;;14.23;2.10;;;9.40;99.90;;;;;;6280993;22;20023;-83
2023/12/11 11:34:44;;;;;;;8.73;1.58;;;9.40;99.90;;;;;;6280927;22;20023;-84
2023/12/11 11:37:48;;;;;;;9.43;1.58;;;9.30;99.90;;;;;;6267085;22;20019;-82
2023/12/11 11:40:31;;;;;;;;;;;9.20;99.90;;;;;;6312632;22;20018;-83
2023/12/11 11:42:58;;;;;;;9.13;1.58;;;9.20;99.90;;;;;;6312952;22;19990;-83
2023/12/11 11:45:26;;;;;;;10.52;1.40;;;9.20;99.90;;;;;;6287043;22;20120;-84
2023/12/11 11:47:53;;;;;;;11.00;2.00;;;9.20;99.90;;;;;;6286496;22;20018;-84
2023/12/11 11:50:20;;;;;;;8.40;1.50;;;9.20;99.90;;;;;;6286158;22;20025;-85
2023/12/11 11:52:58;;;;;;;8.52;1.55;;;9.30;99.90;;;;;;6260882;22;20322;-84
2023/12/11 11:55:27;;;;;;;8.95;1.83;;;9.40;99.90;;;;;;6311375;22;20023;-85
2023/12/11 11:57:55;;;;;;;7.22;1.83;;;9.50;99.90;;;;;;6311231;22;20060;-85
2023/12/11 12:00:23;;;;;;;8.90;1.13;;;9.60;99.90;;;;;;6286251;22;20026;-85
2023/12/11 12:03:04;;;;;;;8.98;1.25;;;9.60;99.90;;;;;;6311689;22;20015;-82
2023/12/11 12:05:32;;;;;;;7.63;1.27;;;9.60;99.90;;;;;;6311101;22;20019;-84
2023/12/11 12:08:02;;;;;;;7.40;1.35;;;9.60;99.90;;;;;;6310970;22;20022;-82
2023/12/11 12:10:30;;;;;;;5.82;0.57;;;9.50;99.90;;;;;;6311341;22;20054;-86
2023/12/11 12:13:00;;;;;;;4.55;1.10;;;9.40;99.90;;;;;;6311357;22;20018;-81
2023/12/11 12:15:28;;;;;;;5.50;1.13;;;9.30;99.90;;;;;;6286330;22;20026;-84
2023/12/11 12:18:07;;;;;;;4.68;0.70;;;9.30;99.90;;;;;;6286388;22;20011;-83
2023/12/11 12:20:35;;;;;;;4.43;0.70;;;9.30;99.90;;;;;;6261175;22;20015;-83
2023/12/11 12:23:05;;;;;;;7.05;1.08;;;9.30;99.90;;;;;;6311684;22;20046;-83
2023/12/11 12:25:34;;;;;;;3.63;1.15;;;9.40;99.90;;;;;;6311315;22;20026;-79
2023/12/11 12:28:11;;;;;;;7.82;1.38;;;9.50;99.90;;;;;;6285629;22;20459;-79
2023/12/11 12:30:39;;;;;;;9.35;1.05;;;9.60;99.90;;;;;;6311415;22;20023;-79
2023/12/11 12:33:09;;;;;;;6.13;0.98;;;9.60;99.90;;;;;;6285715;22;20023;-81
2023/12/11 12:35:37;;;;;;;9.70;1.00;;;9.70;99.70;;;;;;6312305;22;20052;-79
2023/12/11 12:38:07;;;;;;;3.63;1.05;;;9.70;99.50;;;;;;6260899;22;20400;-80
2023/12/11 12:40:34;;;;;;;11.07;1.65;;;9.70;99.20;;;;;;6285598;22;20041;-80
2023/12/11 12:43:14;;;;;;;5.75;1.10;;;9.70;98.60;;;;;;6311370;22;20018;-81
2023/12/11 12:45:44;;;;;;;3.65;0.80;;;9.70;98.80;;;;;;6311382;22;20340;-82
2023/12/11 12:48:13;;;;;;;6.40;1.20;;;9.70;98.80;;;;;;6260193;22;20096;-84
2023/12/11 12:50:40;;;;;;;9.27;1.25;;;9.60;98.90;;;;;;6311192;22;20014;-81
2023/12/11 12:53:10;;;;;;;5.45;0.93;;;9.60;99.10;;;;;;6311228;22;20014;-84
2023/12/11 12:55:41;;;;;;;6.57;1.75;;;9.60;99.20;;;;;;6285398;22;20042;-81
2023/12/11 12:58:11;;;;;;;7.43;1.38;;;9.60;99.30;;;;;;6289725;22;20018;-83
2023/12/11 13:00:43;;;;;;;6.43;1.20;;;9.70;99.20;;;;;;6292993;22;20022;-83
2023/12/11 13:03:10;;;;;;;5.78;1.70;;;9.70;99.10;;;;;;6285543;22;20019;-82
2023/12/11 13:05:45;;;;;;;6.45;1.63;;;9.80;99.00;;;;;;6311124;22;20019;-83
2023/12/11 13:08:16;;;;;;;3.72;0.88;;;9.80;98.90;;;;;;6286956;22;20045;-84
2023/12/11 13:10:57;;;;;;;7.63;1.65;;;9.80;98.80;;;;;;6310826;22;20249;-86
2023/12/11 13:13:27;;;;;;;6.60;1.27;;;9.90;98.70;;;;;;6337153;22;20052;-83
2023/12/11 13:15:56;;;;;;;7.18;1.35;;;9.80;98.70;;;;;;6284799;22;20023;-83
2023/12/11 13:18:24;;;;;;;9.35;1.33;;;9.80;98.60;;;;;;6312790;22;20019;-86
2023/12/11 13:20:52;;;;;;;10.40;1.38;;;9.80;98.60;;;;;;6313524;22;20463;-84
2023/12/11 13:23:23;;;;;;;7.95;1.42;;;9.80;98.50;;;;;;6288488;22;20093;-89
2023/12/11 13:25:51;;;;;;;6.47;1.17;;;9.80;98.40;;;;;;6313606;22;20467;-84
2023/12/11 13:28:18;;;;;;;4.93;0.90;;;9.80;98.40;;;;;;6313161;22;20045;-86
2023/12/11 13:30:46;;;;;;;3.97;0.68;;;9.80;98.50;;;;;;6288214;22;20023;-81
2023/12/11 13:33:13;;;;;;;8.15;1.17;;;9.80;98.40;;;;;;6286873;22;20076;-82
2023/12/11 13:35:40;;;;;;;5.72;1.40;;;9.80;98.20;;;;;;6286982;22;20019;-81
2023/12/11 13:38:07;;;;;;;5.28;0.90;;;9.80;98.30;;;;;;6286743;22;20030;-81
2023/12/11 13:40:34;;;;;;;3.67;0.90;;;9.70;97.90;;;;;;6262052;22;20030;-81
2023/12/11 13:43:04;;;;;;;3.72;0.90;;;9.70;98.10;;;;;;6339152;22;20015;-82
2023/12/11 13:45:31;;;;;;;4.15;0.68;;;9.70;98.30;;;;;;6287196;22;20019;-81
2023/12/11 13:47:59;;;;;;;6.38;1.50;;;9.70;98.60;;;;;;6262288;22;20114;-81
2023/12/11 13:50:26;;;;;;;3.42;0.82;;;9.70;98.60;;;;;;6312832;22;20045;-81
2023/12/11 13:52:54;;;;;;;4.65;0.65;;;9.70;98.70;;;;;;6312473;22;20057;-82
2023/12/11 13:55:21;;;;;;;4.07;1.02;;;9.80;98.80;;;;;;6313250;22;20018;-82
2023/12/11 13:57:48;;;;;;;6.50;0.80;;;9.80;98.80;;;;;;6287079;22;20015;-81
2023/12/11 14:00:16;;;;;;;6.00;0.90;;;9.80;98.80;;;;;;6286918;22;20445;-81
2023/12/11 14:02:44;;;;;;;4.18;0.80;;;9.80;98.80;;;;;;6338666;22;20042;-81
2023/12/11 14:05:31;;;;;;;5.57;1.40;;;9.80;98.90;;;;;;6312626;22;20018;-81
2023/12/11 14:07:59;;;;;;;5.75;1.30;;;9.80;98.90;;;;;;6286718;22;20097;-82
2023/12/11 14:10:26;;;;;;;5.10;1.40;;;9.80;98.90;;;;;;6286873;22;20022;-82
2023/12/11 14:12:53;;;;;;;9.35;2.42;;;9.70;99.10;;;;;;6312820;22;20494;-83
2023/12/11 14:15:25;;;;;;;7.80;1.90;;;9.60;99.30;;;;;;6262368;22;20493;-83
2023/12/11 14:17:52;;;;;;;8.88;1.60;;;9.50;99.60;;;;;;6312595;22;20042;-82
2023/12/11 14:20:19;;;;;;;5.43;1.42;;;9.40;99.90;;;;;;6287096;22;20015;-84
2023/12/11 14:22:47;;;;;;;6.38;1.60;;;9.40;99.90;;;;;;6261701;22;20029;-82
2023/12/11 14:25:16;;;;;;;5.13;1.52;;;9.30;99.90;;;;;;6286903;22;20015;-82
2023/12/11 14:27:44;;;;;;;4.68;1.15;;;9.30;99.90;;;;;;6287423;22;20110;-84
2023/12/11 14:30:14;;;;;;;6.85;1.20;;;9.30;99.90;;;;;;6287823;22;20449;-83
2023/12/11 14:32:41;;;;;;;5.53;1.35;;;9.30;99.90;;;;;;6313160;22;20015;-83
2023/12/11 14:35:08;;;;;;;4.80;1.25;;;9.30;99.90;;;;;;6287156;22;20018;-83
2023/12/11 14:37:41;;;;;;;3.70;1.20;;;9.30;99.90;;;;;;6281454;22;20026;-83
2023/12/11 14:40:08;;;;;;;6.15;1.35;;;9.30;99.90;;;;;;6281295;22;20019;-85
2023/12/11 14:42:36;;;;;;;6.00;1.55;;;9.30;99.90;;;;;;6281880;22;20019;-85
2023/12/11 14:45:13;;;;;;;7.45;1.35;;;9.30;99.90;;;;;;6307292;22;20086;-82
2023/12/11 14:47:40;;;;;;;5.82;1.50;;;9.30;99.90;;;;;;6307253;22;20019;-83
2023/12/11 14:50:08;;;;;;;6.30;1.85;;;9.30;99.90;;;;;;6281129;22;20102;-83
2023/12/11 14:52:35;;;;;;;5.18;1.48;;;9.20;99.90;;;;;;6231113;22;20019;-83
2023/12/11 14:55:04;;;;;;;4.80;1.20;;;9.20;99.90;;;;;;6255939;22;20043;-83
2023/12/11 14:57:32;;;;;;;6.25;1.80;;;9.20;99.90;;;;;;6256513;22;20015;-83
2023/12/11 15:00:01;;;;;;;7.00;1.67;;;9.20;99.90;;;;;;6282003;22;20387;-82
2023/12/11 15:02:28;;;;;;;6.25;1.90;;;9.20;99.90;;;;;;6281688;22;20096;-82
2023/12/11 15:04:56;;;;;;;5.32;1.70;;;9.20;99.90;;;;;;6281692;22;20406;-83
2023/12/11 15:07:23;;;;;;;7.20;2.25;;;9.10;99.90;;;;;;6255813;22;20052;-82
2023/12/11 15:09:50;;;;;;;7.50;1.52;;;9.00;99.90;;;;;;6281367;22;20023;-83
2023/12/11 15:12:17;;;;;;;9.85;2.42;;;9.00;99.90;;;;;;6307475;22;20082;-82
2023/12/11 15:14:45;;;;;;;6.85;2.05;;;8.90;99.90;;;;;;6256047;22;20019;-83
2023/12/11 15:17:12;;;;;;;4.95;1.20;;;8.80;99.90;;;;;;6281585;22;20094;-82
2023/12/11 15:19:41;;;;;;;6.78;2.28;;;8.70;99.90;;;;;;6255686;22;20021;-82
2023/12/11 15:22:08;;;;;;;5.05;1.60;;;8.70;99.90;;;;;;6281005;22;20396;-82
2023/12/11 15:24:35;;;;;;;8.50;1.67;;;8.70;99.90;;;;;;6230268;22;20042;-82
2023/12/11 15:27:03;;;;;;;6.80;1.88;;;8.70;99.90;;;;;;6255457;22;20025;-82